createdAt,value
2019-06-08T00:04:22.911Z,100641.06
2019-06-08T00:09:27.227Z,100642.53
2019-06-08T00:14:31.463Z,100639.33
2019-06-08T00:19:35.668Z,100636.94
2019-06-08T00:24:39.860Z,100645.23
2019-06-08T00:29:44.062Z,100655.27
2019-06-08T00:34:48.258Z,100652.08
2019-06-08T00:39:52.460Z,100674.48
2019-06-08T00:44:56.692Z,100659.20
2019-06-08T00:50:00.850Z,100674.33
2019-06-08T00:55:05.214Z,100694.42
2019-06-08T01:00:11.646Z,100705.78
2019-06-08T01:05:15.910Z,100709.30
2019-06-08T01:10:21.315Z,100710.41
2019-06-08T01:15:31.098Z,100712.08
2019-06-08T01:20:31.783Z,100733.29
2019-06-08T01:25:36.086Z,100739.17
2019-06-08T01:30:40.404Z,100750.67
2019-06-08T01:35:44.594Z,100750.95
2019-06-08T01:40:48.805Z,100748.44
2019-06-08T01:45:53.000Z,100759.27
2019-06-08T01:50:57.202Z,100784.06
2019-06-08T01:56:01.410Z,100789.14
2019-06-08T02:01:05.866Z,100789.36
2019-06-08T02:06:10.104Z,100816.17
2019-06-08T02:11:14.306Z,100830.61
2019-06-08T02:16:18.548Z,100830.01
2019-06-08T02:21:22.726Z,100876.31
2019-06-08T02:26:28.681Z,100888.87
2019-06-08T02:31:34.828Z,100898.63
2019-06-08T02:36:38.841Z,100914.64
2019-06-08T02:41:43.045Z,100939.53
2019-06-08T02:46:47.276Z,100942.78
2019-06-08T02:51:51.689Z,100957.40
2019-06-08T02:56:56.187Z,100955.72
2019-06-08T03:02:02.289Z,100959.81
2019-06-08T03:07:06.893Z,100959.55
2019-06-08T03:12:11.105Z,100987.23
2019-06-08T03:17:15.344Z,100992.89
2019-06-08T03:22:19.549Z,100983.15
2019-06-08T03:27:23.752Z,100983.91
2019-06-08T03:32:27.973Z,100974.45
2019-06-08T03:37:33.315Z,100976.64
2019-06-08T03:42:37.575Z,100988.31
2019-06-08T03:47:43.499Z,100980.47
2019-06-08T03:52:47.715Z,100972.80
2019-06-08T03:57:51.918Z,100982.21
2019-06-08T04:02:56.115Z,100982.00
2019-06-08T04:08:00.318Z,100975.63
2019-06-08T04:13:05.159Z,100992.83
2019-06-08T04:18:09.347Z,100994.69
2019-06-08T04:23:13.552Z,100976.34
2019-06-08T04:28:17.745Z,100980.27
2019-06-08T04:33:22.247Z,100979.16
2019-06-08T04:38:26.450Z,100992.73
2019-06-08T04:43:30.654Z,101047.41
2019-06-08T04:48:34.848Z,101070.87
2019-06-08T04:53:40.719Z,101062.48
2019-06-08T04:58:47.821Z,101062.99
2019-06-08T05:03:51.061Z,101085.06
2019-06-08T05:08:55.370Z,101083.39
2019-06-08T05:13:59.617Z,101099.75
2019-06-08T05:19:03.844Z,101114.81
2019-06-08T05:24:08.141Z,101131.87
2019-06-08T05:29:12.604Z,101142.59
2019-06-08T05:34:16.812Z,101147.04
2019-06-08T05:39:21.010Z,101156.41
2019-06-08T05:44:26.407Z,101145.17
2019-06-08T05:49:30.609Z,101137.02
2019-06-08T05:54:35.129Z,101147.36
2019-06-08T05:59:40.061Z,101179.27
2019-06-08T06:04:44.480Z,101181.43
2019-06-08T06:09:48.875Z,101163.84
2019-06-08T06:14:53.120Z,101178.95
2019-06-08T06:19:57.331Z,101179.33
2019-06-08T06:25:01.552Z,101172.42
2019-06-08T06:30:06.323Z,101169.00
2019-06-08T06:35:10.845Z,101185.65
2019-06-08T06:40:15.756Z,101190.13
2019-06-08T06:45:19.965Z,101191.77
2019-06-08T06:50:24.175Z,101200.02
2019-06-08T06:55:30.492Z,101187.88
2019-06-08T07:00:34.903Z,101212.72
2019-06-08T07:05:39.087Z,101244.81
2019-06-08T07:10:44.512Z,101244.81
2019-06-08T07:15:51.540Z,101249.08
2019-06-08T07:20:54.825Z,101249.70
2019-06-08T07:25:59.009Z,101262.71
2019-06-08T07:31:03.243Z,101255.42
2019-06-08T07:36:08.897Z,101243.11
2019-06-08T07:41:13.103Z,101275.69
2019-06-08T07:46:17.285Z,101308.45
2019-06-08T07:51:21.534Z,101291.33
2019-06-08T07:56:25.739Z,101309.79
2019-06-08T08:01:36.126Z,101309.79
2019-06-08T08:06:36.012Z,101304.73
2019-06-08T08:11:40.223Z,101326.14
2019-06-08T08:16:44.477Z,101347.60
2019-06-08T08:21:51.839Z,101347.60
2019-06-08T08:26:56.986Z,101357.17
2019-06-08T08:32:02.068Z,101352.80
2019-06-08T08:37:09.495Z,101336.31
2019-06-08T08:42:12.777Z,101335.16
2019-06-08T08:47:18.695Z,101348.33
2019-06-08T08:52:34.513Z,101346.77
2019-06-08T08:57:29.030Z,101325.28
2019-06-08T09:02:33.267Z,101315.72
2019-06-08T09:07:38.477Z,101267.45
2019-06-08T09:12:42.971Z,101270.91
2019-06-08T09:17:48.288Z,101337.00
2019-06-08T09:23:01.682Z,101377.99
2019-06-08T09:28:01.268Z,101373.46
2019-06-08T09:33:04.595Z,101381.25
2019-06-08T09:38:11.023Z,101383.16
2019-06-08T09:43:14.731Z,101381.11
2019-06-08T09:48:18.983Z,101367.83
2019-06-08T09:53:31.975Z,101380.31
2019-06-08T09:58:29.188Z,101408.67
2019-06-08T10:03:34.317Z,101356.65
2019-06-08T10:08:38.899Z,101415.73
2019-06-08T10:13:43.646Z,101442.77
2019-06-08T10:18:51.057Z,101434.67
2019-06-08T10:23:58.272Z,101428.99
2019-06-08T10:29:04.139Z,101421.83
2019-06-08T10:34:10.891Z,101425.09
2019-06-08T10:39:13.784Z,101417.06
2019-06-08T10:44:18.361Z,101397.56
2019-06-08T10:49:22.674Z,101402.87
2019-06-08T10:54:27.752Z,101407.97
2019-06-08T10:59:32.008Z,101403.30
2019-06-08T11:04:38.655Z,101416.63
2019-06-08T11:09:42.101Z,101416.63
2019-06-08T11:14:48.148Z,101406.47
2019-06-08T11:19:53.311Z,101393.41
2019-06-08T11:25:00.794Z,101418.48
2019-06-08T11:30:14.207Z,101396.16
2019-06-08T11:35:12.595Z,101382.03
2019-06-08T11:40:20.291Z,101384.44
2019-06-08T11:45:22.886Z,101386.91
2019-06-08T11:50:42.280Z,101387.98
2019-06-08T11:55:50.734Z,101392.81
2019-06-08T12:01:03.759Z,101395.53
2019-06-08T12:06:09.482Z,101399.28
2019-06-08T12:11:18.114Z,101425.66
2019-06-08T12:16:22.349Z,101412.75
2019-06-08T12:21:27.377Z,101414.63
2019-06-08T12:26:31.697Z,101408.37
2019-06-08T12:31:37.824Z,101412.46
2019-06-08T12:36:42.433Z,101411.50
2019-06-08T12:41:47.879Z,101416.65
2019-06-08T12:46:52.118Z,101398.81
2019-06-08T12:51:58.657Z,101400.23
2019-06-08T12:57:02.851Z,101400.87
2019-06-08T13:02:08.743Z,101396.58
2019-06-08T13:07:13.203Z,101390.00
2019-06-08T13:12:19.925Z,101387.75
2019-06-08T13:17:23.486Z,101392.59
2019-06-08T13:22:30.842Z,101377.81
2019-06-08T13:27:33.600Z,101394.09
2019-06-08T13:32:38.299Z,101402.91
2019-06-08T13:37:43.753Z,101400.61
2019-06-08T13:42:51.131Z,101403.14
2019-06-08T13:47:53.864Z,101407.54
2019-06-08T13:52:58.765Z,101406.09
2019-06-08T13:58:03.040Z,101411.23
2019-06-08T14:03:08.840Z,101399.56
2019-06-08T14:08:14.435Z,101416.95
2019-06-08T14:13:21.514Z,101410.66
2019-06-08T14:18:31.642Z,101414.27
2019-06-08T14:23:32.030Z,101438.25
2019-06-08T14:28:38.067Z,101419.83
2019-06-08T14:33:42.343Z,101436.88
2019-06-08T14:38:49.111Z,101434.95
2019-06-08T14:43:52.476Z,101434.95
2019-06-08T14:48:58.534Z,101433.33
2019-06-08T14:54:02.889Z,101438.55
2019-06-08T14:59:08.184Z,101437.36
2019-06-08T15:04:12.492Z,101439.30
2019-06-08T15:09:17.812Z,101436.48
2019-06-08T15:14:23.555Z,101445.16
2019-06-08T15:19:30.385Z,101443.86
2019-06-08T15:24:34.338Z,101451.59
2019-06-08T15:29:38.577Z,101443.97
2019-06-08T15:34:42.757Z,101449.59
2019-06-08T15:39:48.636Z,101470.27
2019-06-08T15:44:52.890Z,101476.16
2019-06-08T15:49:58.788Z,101473.98
2019-06-08T15:55:03.063Z,101475.09
2019-06-08T16:00:10.194Z,101479.16
2019-06-08T16:05:14.192Z,101484.97
2019-06-08T16:10:18.406Z,101482.06
2019-06-08T16:15:22.597Z,101473.61
2019-06-08T16:20:27.544Z,101483.52
2019-06-08T16:25:35.205Z,101486.05
2019-06-08T16:30:37.742Z,101489.72
2019-06-08T16:35:41.964Z,101480.08
2019-06-08T16:40:46.229Z,101494.81
2019-06-08T16:45:50.374Z,101498.90
2019-06-08T16:50:54.565Z,101501.95
2019-06-08T16:56:01.689Z,101506.27
2019-06-08T17:01:07.281Z,101502.34
2019-06-08T17:06:11.486Z,101515.50
2019-06-08T17:11:15.695Z,101517.48
2019-06-08T17:16:19.923Z,101507.33
2019-06-08T17:21:24.132Z,101520.84
2019-06-08T17:26:28.625Z,101527.67
2019-06-08T17:31:33.031Z,101534.39
2019-06-08T17:36:38.534Z,101525.97
2019-06-08T17:41:42.849Z,101531.53
2019-06-08T17:46:48.271Z,101541.09
2019-06-08T17:51:52.462Z,101543.55
2019-06-08T17:56:56.651Z,101549.26
2019-06-08T18:02:00.856Z,101556.63
2019-06-08T18:07:07.041Z,101548.72
2019-06-08T18:12:12.780Z,101557.98
2019-06-08T18:17:18.432Z,101564.51
2019-06-08T18:22:22.795Z,101568.31
2019-06-08T18:27:27.850Z,101563.40
2019-06-08T18:32:32.130Z,101563.67
2019-06-08T18:37:40.656Z,101570.38
2019-06-08T18:42:48.780Z,101571.20
2019-06-08T18:47:53.301Z,101581.75
2019-06-08T18:52:57.980Z,101599.94
2019-06-08T18:58:16.411Z,101602.29
2019-06-08T19:03:10.276Z,101610.38
2019-06-08T19:08:17.988Z,101610.38
2019-06-08T19:13:22.287Z,101624.58
2019-06-08T19:18:26.928Z,101638.45
2019-06-08T19:23:32.478Z,101652.28
2019-06-08T19:28:40.920Z,101654.72
2019-06-08T19:33:43.659Z,101657.95
2019-06-08T19:38:53.393Z,101675.42
2019-06-08T19:43:54.842Z,101682.11
2019-06-08T19:48:59.262Z,101678.59
2019-06-08T19:54:03.503Z,101688.79
2019-06-08T19:59:08.453Z,101694.73
2019-06-08T20:04:12.799Z,101703.59
2019-06-08T20:09:17.456Z,101716.56
2019-06-08T20:14:21.819Z,101718.19
2019-06-08T20:19:27.922Z,101708.86
2019-06-08T20:24:31.962Z,101708.86
2019-06-08T20:29:38.139Z,101722.03
2019-06-08T20:34:42.429Z,101733.73
2019-06-08T20:40:04.471Z,101728.65
2019-06-08T20:44:54.098Z,101736.62
2019-06-08T20:49:58.465Z,101739.00
2019-06-08T20:55:02.682Z,101743.73
2019-06-08T21:00:11.058Z,101742.13
2019-06-08T21:05:14.044Z,101751.31
2019-06-08T21:10:18.292Z,101762.10
2019-06-08T21:15:22.573Z,101766.58
2019-06-08T21:20:28.252Z,101770.25
2019-06-08T21:25:32.589Z,101771.90
2019-06-08T21:30:37.723Z,101772.49
2019-06-08T21:35:42.227Z,101765.80
2019-06-08T21:40:50.483Z,101772.44
2019-06-08T21:45:53.630Z,101777.23
2019-06-08T21:51:01.449Z,101788.32
2019-06-08T21:56:04.829Z,101779.35
2019-06-08T22:01:09.739Z,101786.78
2019-06-08T22:06:13.949Z,101787.84
2019-06-08T22:11:18.191Z,101779.05
2019-06-08T22:16:22.409Z,101783.08
2019-06-08T22:21:27.991Z,101785.00
2019-06-08T22:26:32.302Z,101784.45
2019-06-08T22:31:37.581Z,101791.93
2019-06-08T22:36:41.948Z,101788.88
2019-06-08T22:41:47.811Z,101792.50
2019-06-08T22:46:53.868Z,101788.16
2019-06-08T22:52:00.864Z,101792.23
2019-06-08T22:57:04.828Z,101792.03
2019-06-08T23:02:09.315Z,101791.46
2019-06-08T23:07:25.724Z,101796.84
2019-06-08T23:12:19.542Z,101792.97
2019-06-08T23:17:23.732Z,101798.92
2019-06-08T23:22:27.949Z,101801.11
2019-06-08T23:27:32.192Z,101796.24
2019-06-08T23:32:38.550Z,101802.70
2019-06-08T23:37:44.450Z,101802.68
2019-06-08T23:42:48.680Z,101807.22
2019-06-08T23:47:52.891Z,101812.38
2019-06-08T23:52:59.019Z,101809.61
2019-06-08T23:58:03.030Z,101812.70
